Aeroporto :
LOGIN :

Iscrizione | Disclaimer

   EN    FR    IT 

 










Sommario :    VFR   VFR Marginale   IFR   IFR Intensivo   IFR Molto Intensivo
Visibilità : 
Base nubi : 
>= 8 km
>= 3000ft
5 / 8 km
1000 / 3000 ft
1500m / 5 km
500 / 1000 ft
800 / 1500m
200 / 500 ft
< 800m
< 200 ft
Simboli :   Temporali  Nebbia  Neve Forte  Precipitazioni Forti  Vento > 20 kt
SIGMETs :   Varie  Temporali  Ghiacco  Turbolenza  Onda orograficha  Ceneri Vulcaniche






- Altitudine del aeroporto : 269 ft
- Codice IATA : HTY


LTDA - Hatay

ULTIMO METAR :
  • 050250Z 36004KT 320V100 CAVOK 15/13 Q1016 NOSIG

METARs OBSOLETI :
  • 050150Z 28004KT 240V030 CAVOK 16/13 Q1015 NOSIG
  • 050050Z 23009KT CAVOK 19/15 Q1015 NOSIG

TAF TAF LTDA
Valido dal 05 a 03 ore il 05 a 12 ore UTC


050140Z 0503/0512 24012KT CAVOK
BECMG 0505/0507 VRB02KT
BECMG 0510/0512 23016KT



MetMap, La meteo Aeronautica in un colpo d'occhio ! - Copyright ORBIFLY Dicembre 2007 - Disclaimer

ORBIFLY MET'MAP TEAM :

Programmazione e sviluppo : Alexandra Zaïnal
Concezione : Baudouin d'Aumeries
Aiuto per la programmazione : Marc-Olivier Méhu
Supporto tecnico e logistico : Manuel Goepfert
Aiuto per la traduzione : Arnaldo La Scala

Contatto : metmap@orbifly.com




FONTI E CREDITI :

   NOAA